Time;durP1;ratioP1;P1;durP2;ratioP2;P2;SDS_P1;SDS_P2;PMS_P1;PMS_P2;Temp;Humidity;BMP_temperature;BMP_pressure;BME280_temperature;BME280_humidity;BME280_pressure;Samples;Min_cycle;Max_cycle;Signal;HPM_P1;HPM_P2
2023/03/30 00:01:20;;;;;;;2.60;1.40;;;16.70;55.30;;;;;;5010114;28;20056;-50
2023/03/30 00:03:53;;;;;;;3.08;1.05;;;16.70;55.20;;;;;;4999574;28;20043;-51
2023/03/30 00:06:21;;;;;;;3.30;1.40;;;16.70;55.30;;;;;;5004658;28;20056;-47
2023/03/30 00:08:56;;;;;;;4.03;1.80;;;16.70;55.30;;;;;;5003531;28;20049;-50
2023/03/30 00:11:32;;;;;;;1.83;1.20;;;16.70;55.30;;;;;;5004053;28;20126;-50
2023/03/30 00:14:00;;;;;;;1.35;1.25;;;16.60;55.30;;;;;;4989692;28;20134;-48
2023/03/30 00:16:27;;;;;;;5.57;2.15;;;16.60;55.40;;;;;;4992889;28;20484;-50
2023/03/30 00:18:54;;;;;;;2.38;1.58;;;16.50;55.40;;;;;;5006182;28;20557;-48
2023/03/30 00:21:21;;;;;;;4.28;1.30;;;16.50;55.40;;;;;;5001616;28;20510;-50
2023/03/30 00:23:51;;;;;;;3.05;1.55;;;16.50;55.40;;;;;;5007700;28;20061;-47
2023/03/30 00:26:17;;;;;;;2.45;1.30;;;16.50;55.50;;;;;;4990177;28;20046;-50
2023/03/30 00:28:45;;;;;;;2.67;1.40;;;16.40;55.60;;;;;;4989939;28;20050;-47
2023/03/30 00:31:12;;;;;;;3.60;1.75;;;16.40;55.60;;;;;;4999692;28;20048;-49
2023/03/30 00:33:43;;;;;;;4.68;1.33;;;16.50;55.70;;;;;;5008415;28;20053;-48
2023/03/30 00:36:16;;;;;;;4.95;1.42;;;16.40;55.70;;;;;;5007808;28;20506;-48
2023/03/30 00:38:44;;;;;;;3.85;1.20;;;16.50;55.70;;;;;;4980524;28;20046;-48
2023/03/30 00:41:11;;;;;;;4.47;1.70;;;16.50;55.60;;;;;;4976683;28;20072;-46
2023/03/30 00:43:58;;;;;;;1.77;1.35;;;16.50;55.70;;;;;;4975272;28;20085;-47
2023/03/30 00:46:34;;;;;;;2.65;1.20;;;16.60;55.40;;;;;;4997736;28;20048;-51
2023/03/30 00:49:09;;;;;;;2.40;1.45;;;16.70;55.40;;;;;;4988302;28;20596;-49
2023/03/30 00:51:39;;;;;;;1.98;1.20;;;16.70;55.20;;;;;;5003808;28;20042;-51
2023/03/30 00:54:15;;;;;;;2.97;1.25;;;16.80;55.10;;;;;;4991561;28;20050;-48
2023/03/30 00:56:42;;;;;;;2.25;1.23;;;16.90;54.90;;;;;;4990072;28;20049;-51
2023/03/30 00:59:18;;;;;;;4.32;1.48;;;16.90;55.00;;;;;;4972120;28;20039;-51
2023/03/30 01:01:49;;;;;;;7.82;1.50;;;17.00;54.90;;;;;;5003788;28;20033;-50
2023/03/30 01:04:16;;;;;;;4.88;2.28;;;17.00;54.70;;;;;;4997806;28;20120;-51
2023/03/30 01:06:46;;;;;;;2.78;1.55;;;17.00;54.50;;;;;;5001672;28;20053;-47
2023/03/30 01:09:14;;;;;;;4.25;1.73;;;17.10;54.50;;;;;;4984314;28;20144;-50
2023/03/30 01:11:46;;;;;;;4.63;1.90;;;17.10;54.40;;;;;;5009488;28;20462;-50
2023/03/30 01:14:15;;;;;;;2.35;1.92;;;17.10;54.10;;;;;;4983682;28;20042;-51
2023/03/30 01:17:00;;;;;;;3.97;1.85;;;17.10;54.10;;;;;;5003434;28;20038;-48
2023/03/30 01:19:44;;;;;;;3.22;1.35;;;17.20;54.00;;;;;;4990624;28;20116;-51
2023/03/30 01:22:23;;;;;;;3.17;2.13;;;17.20;54.00;;;;;;4993981;28;20042;-49
2023/03/30 01:25:09;;;;;;;3.30;1.20;;;17.20;53.90;;;;;;5002683;28;20042;-49
2023/03/30 01:28:13;;;;;;;4.30;1.40;;;17.20;54.00;;;;;;4993055;28;20490;-49
2023/03/30 01:31:04;;;;;;;3.22;1.17;;;17.20;53.70;;;;;;5005751;28;20080;-49
2023/03/30 01:34:09;;;;;;;3.00;1.53;;;17.20;53.80;;;;;;4983044;28;20116;-50
2023/03/30 01:36:58;;;;;;;4.80;2.20;;;17.30;53.90;;;;;;4984425;28;20308;-51
2023/03/30 01:39:52;;;;;;;5.32;2.35;;;17.30;53.90;;;;;;5008950;28;20505;-50
2023/03/30 01:43:11;;;;;;;3.65;1.70;;;17.30;53.90;;;;;;4949157;28;20050;-50
2023/03/30 01:45:51;;;;;;;3.03;1.20;;;17.30;54.00;;;;;;4984373;28;20054;-51
2023/03/30 01:48:25;;;;;;;4.38;1.38;;;17.40;54.00;;;;;;5011424;28;20038;-47
2023/03/30 01:51:01;;;;;;;1.65;1.30;;;17.40;54.00;;;;;;4998075;28;20097;-51
2023/03/30 01:53:34;;;;;;;2.95;1.40;;;17.30;54.00;;;;;;5011366;28;20536;-50
2023/03/30 01:56:14;;;;;;;4.63;1.40;;;17.30;54.00;;;;;;4976253;28;20046;-50
2023/03/30 01:59:00;;;;;;;2.75;1.27;;;17.40;53.90;;;;;;4984630;28;20060;-50
2023/03/30 02:01:33;;;;;;;3.20;1.25;;;17.40;53.80;;;;;;5002571;28;20069;-50
2023/03/30 02:04:02;;;;;;;4.57;1.30;;;17.40;54.10;;;;;;4973735;28;20057;-50
2023/03/30 02:06:38;;;;;;;3.70;1.77;;;17.40;54.80;;;;;;4969947;28;20663;-48
2023/03/30 02:09:19;;;;;;;3.92;1.20;;;17.40;54.00;;;;;;5008742;28;20525;-51
2023/03/30 02:11:49;;;;;;;3.88;1.58;;;17.40;54.00;;;;;;4978328;28;20046;-51
2023/03/30 02:14:19;;;;;;;2.63;1.25;;;17.40;54.00;;;;;;4974239;28;20122;-50
2023/03/30 02:16:49;;;;;;;4.57;1.48;;;17.40;54.00;;;;;;4978126;28;20042;-48
2023/03/30 02:19:17;;;;;;;7.72;2.00;;;17.40;53.90;;;;;;4982256;28;20065;-51
2023/03/30 02:21:45;;;;;;;3.40;1.70;;;17.40;53.90;;;;;;5002603;28;20408;-48
2023/03/30 02:24:21;;;;;;;3.33;1.48;;;17.40;53.90;;;;;;4988549;28;20035;-48
2023/03/30 02:26:50;;;;;;;1.90;0.90;;;17.40;53.90;;;;;;4974177;28;20054;-49
2023/03/30 02:29:21;;;;;;;2.47;1.80;;;17.40;53.90;;;;;;4995586;28;20049;-47
2023/03/30 02:31:51;;;;;;;3.47;1.10;;;17.40;53.90;;;;;;5005578;28;20046;-48
2023/03/30 02:34:24;;;;;;;2.40;1.20;;;17.40;53.90;;;;;;4980836;28;20058;-49
2023/03/30 02:36:53;;;;;;;2.45;1.30;;;17.40;53.80;;;;;;4989417;28;20041;-48
2023/03/30 02:39:54;;;;;;;3.47;1.50;;;17.40;53.70;;;;;;4983337;28;20384;-46
2023/03/30 02:42:50;;;;;;;1.95;0.98;;;17.40;53.50;;;;;;4991064;28;20137;-47
2023/03/30 02:45:50;;;;;;;3.38;1.58;;;17.40;53.70;;;;;;4970920;28;20518;-50
2023/03/30 02:48:40;;;;;;;4.57;1.75;;;17.40;53.60;;;;;;4987766;28;20591;-48
2023/03/30 02:51:19;;;;;;;3.55;1.42;;;17.40;53.50;;;;;;4976249;28;20048;-49
2023/03/30 02:54:34;;;;;;;2.10;1.13;;;17.40;53.50;;;;;;4989679;28;20050;-48
2023/03/30 02:57:16;;;;;;;2.15;0.95;;;17.40;53.50;;;;;;5000030;28;20395;-48
2023/03/30 02:59:52;;;;;;;3.65;1.30;;;17.40;53.70;;;;;;4982787;28;20045;-51
2023/03/30 03:02:23;;;;;;;3.75;1.00;;;17.40;53.70;;;;;;4992395;28;20506;-49
2023/03/30 03:05:02;;;;;;;3.10;1.40;;;17.40;53.80;;;;;;4978518;28;20062;-47
2023/03/30 03:07:55;;;;;;;1.63;1.15;;;17.40;53.80;;;;;;4990150;28;20054;-50
2023/03/30 03:10:23;;;;;;;3.83;1.20;;;17.30;53.80;;;;;;4998422;28;20072;-51
2023/03/30 03:12:50;;;;;;;4.72;1.45;;;17.30;53.90;;;;;;5010572;28;20125;-51
2023/03/30 03:15:17;;;;;;;6.20;1.30;;;17.30;54.10;;;;;;4992632;28;20096;-51
2023/03/30 03:18:01;;;;;;;4.90;1.35;;;17.30;54.10;;;;;;4992156;28;20053;-50
2023/03/30 03:20:29;;;;;;;5.65;1.38;;;17.30;54.20;;;;;;4991073;28;20061;-50
2023/03/30 03:22:57;;;;;;;4.00;1.05;;;17.30;54.20;;;;;;4987618;28;20060;-50
2023/03/30 03:25:23;;;;;;;4.38;1.27;;;17.30;54.20;;;;;;4990797;28;20037;-50
2023/03/30 03:27:58;;;;;;;3.17;1.63;;;17.30;54.20;;;;;;4975595;28;20049;-50
2023/03/30 03:30:27;;;;;;;4.60;1.73;;;17.30;54.20;;;;;;4979775;28;20073;-51
2023/03/30 03:33:04;;;;;;;3.17;1.83;;;17.30;54.40;;;;;;4984575;28;20048;-50
2023/03/30 03:35:33;;;;;;;3.78;1.25;;;17.30;54.50;;;;;;4978739;28;20034;-51
2023/03/30 03:38:06;;;;;;;2.35;1.20;;;17.30;54.60;;;;;;4982156;28;20042;-48
2023/03/30 03:40:33;;;;;;;2.30;1.10;;;17.30;54.60;;;;;;4986874;28;20041;-48
2023/03/30 03:43:02;;;;;;;3.28;1.30;;;17.30;54.70;;;;;;4991397;28;20109;-48
2023/03/30 03:45:33;;;;;;;5.22;1.40;;;17.30;54.80;;;;;;4972841;28;20430;-48
2023/03/30 03:48:00;;;;;;;2.55;1.48;;;17.30;54.80;;;;;;4982035;28;20497;-51
2023/03/30 03:50:44;;;;;;;3.53;1.70;;;17.30;54.80;;;;;;4990237;28;20074;-48
2023/03/30 03:53:12;;;;;;;2.97;1.30;;;17.30;54.80;;;;;;4991875;28;20046;-51
2023/03/30 03:55:38;;;;;;;2.83;1.25;;;17.20;55.00;;;;;;4978179;28;20407;-49
2023/03/30 03:58:08;;;;;;;5.03;1.67;;;17.30;55.00;;;;;;4973001;28;20038;-48
2023/03/30 04:00:37;;;;;;;4.15;1.70;;;17.20;55.00;;;;;;4986958;28;20071;-47
2023/03/30 04:03:11;;;;;;;3.47;1.50;;;17.30;55.10;;;;;;5009672;28;20046;-49
2023/03/30 04:05:38;;;;;;;2.80;1.48;;;17.20;55.10;;;;;;4995269;28;20046;-50
2023/03/30 04:08:10;;;;;;;5.20;1.60;;;17.20;55.20;;;;;;4976564;28;20050;-48
2023/03/30 04:10:42;;;;;;;2.58;1.50;;;17.20;55.30;;;;;;5004261;28;20046;-47
2023/03/30 04:13:35;;;;;;;5.00;1.73;;;17.20;55.20;;;;;;4989014;28;20137;-49
2023/03/30 04:16:31;;;;;;;4.00;1.48;;;17.20;55.30;;;;;;4986490;28;20042;-47
2023/03/30 04:19:30;;;;;;;2.92;1.55;;;17.20;55.20;;;;;;4994247;28;20065;-52
2023/03/30 04:22:14;;;;;;;4.18;1.80;;;17.20;55.30;;;;;;4990834;28;20056;-50
2023/03/30 04:25:24;;;;;;;2.85;1.25;;;17.20;55.30;;;;;;4991707;28;20536;-49
2023/03/30 04:28:20;;;;;;;4.03;1.80;;;17.20;55.30;;;;;;4975533;28;20049;-51
2023/03/30 04:31:11;;;;;;;1.75;1.25;;;17.20;55.30;;;;;;4985705;28;20058;-50
2023/03/30 04:34:01;;;;;;;3.00;1.60;;;17.20;55.40;;;;;;4972029;28;20512;-51
2023/03/30 04:36:59;;;;;;;4.90;1.92;;;17.20;56.00;;;;;;4989936;28;20052;-51
2023/03/30 04:40:08;;;;;;;3.95;1.23;;;17.20;55.40;;;;;;4949485;28;20110;-48
2023/03/30 04:43:01;;;;;;;2.80;1.40;;;17.20;55.40;;;;;;4948441;28;20054;-47
2023/03/30 04:45:53;;;;;;;4.20;1.60;;;17.20;55.30;;;;;;4989804;28;20057;-51
2023/03/30 04:48:49;;;;;;;3.90;1.17;;;17.30;55.40;;;;;;4969364;28;20190;-50
2023/03/30 04:51:18;;;;;;;3.47;1.45;;;17.30;55.50;;;;;;5009169;28;20050;-47
2023/03/30 04:54:04;;;;;;;3.60;1.48;;;17.30;55.40;;;;;;5010982;28;20104;-51
2023/03/30 04:56:55;;;;;;;1.70;1.10;;;17.30;55.40;;;;;;4975857;28;20591;-50
2023/03/30 04:59:44;;;;;;;3.50;1.45;;;17.30;55.40;;;;;;4985894;28;20038;-50
2023/03/30 05:02:30;;;;;;;3.10;1.10;;;17.30;55.30;;;;;;5009561;28;20519;-51
2023/03/30 05:05:16;;;;;;;2.03;1.10;;;17.40;55.30;;;;;;4982751;28;20765;-51
2023/03/30 05:07:52;;;;;;;3.13;1.00;;;17.40;55.30;;;;;;4975864;28;20049;-51
2023/03/30 05:10:37;;;;;;;1.92;1.58;;;17.40;55.20;;;;;;5009325;28;20064;-51
2023/03/30 05:13:40;;;;;;;3.47;0.90;;;17.40;55.10;;;;;;4956487;28;20063;-49
2023/03/30 05:16:25;;;;;;;3.35;0.98;;;17.40;55.00;;;;;;4980662;28;20285;-48
2023/03/30 05:19:08;;;;;;;1.60;1.00;;;17.40;55.00;;;;;;4986399;28;20042;-49
2023/03/30 05:22:07;;;;;;;4.55;1.85;;;17.40;54.90;;;;;;4998114;28;20061;-50
2023/03/30 05:24:50;;;;;;;;;;;17.40;54.80;;;;;;4987141;28;20053;-47
2023/03/30 05:27:36;;;;;;;0.80;0.60;;;17.50;55.00;;;;;;4980454;28;20005;-50
2023/03/30 05:30:35;;;;;;;4.22;1.65;;;17.50;54.60;;;;;;4992666;28;20050;-51
2023/03/30 05:33:24;;;;;;;2.47;1.05;;;17.50;54.50;;;;;;4955088;28;20799;-50
2023/03/30 05:36:11;;;;;;;2.67;0.95;;;17.40;54.40;;;;;;5008992;28;20054;-49
2023/03/30 05:38:58;;;;;;;0.95;0.77;;;17.40;54.30;;;;;;5003441;28;20152;-49
2023/03/30 05:41:52;;;;;;;3.88;1.08;;;17.40;54.40;;;;;;4990196;28;20065;-50
2023/03/30 05:44:38;;;;;;;3.58;1.20;;;17.30;54.30;;;;;;4993440;28;20041;-51
2023/03/30 05:47:40;;;;;;;1.88;1.20;;;17.20;54.30;;;;;;4999695;28;20068;-48
2023/03/30 05:50:16;;;;;;;3.15;1.40;;;17.20;54.40;;;;;;4986717;28;20045;-51
2023/03/30 05:52:52;;;;;;;2.13;1.42;;;17.10;54.50;;;;;;4987852;28;20057;-51
2023/03/30 05:55:30;;;;;;;4.57;2.00;;;17.10;54.60;;;;;;4993141;28;20426;-47
2023/03/30 05:58:07;;;;;;;3.25;1.52;;;17.10;54.80;;;;;;5003065;28;20046;-50
2023/03/30 06:00:48;;;;;;;3.00;1.45;;;17.00;55.00;;;;;;4981909;28;20046;-51
2023/03/30 06:03:29;;;;;;;2.90;1.48;;;17.00;55.10;;;;;;4978930;28;20384;-49
2023/03/30 06:05:56;;;;;;;3.13;1.50;;;17.00;55.90;;;;;;4986646;28;20050;-48
2023/03/30 06:08:23;;;;;;;4.05;2.30;;;16.90;55.40;;;;;;4986929;28;20816;-50
2023/03/30 06:10:57;;;;;;;2.90;1.25;;;16.90;55.70;;;;;;4993416;28;20056;-50
2023/03/30 06:13:26;;;;;;;5.60;1.55;;;16.90;55.90;;;;;;4986270;28;20042;-48
2023/03/30 06:15:54;;;;;;;4.90;1.85;;;16.90;56.00;;;;;;4989290;28;20501;-51
2023/03/30 06:18:24;;;;;;;1.50;1.20;;;16.90;56.10;;;;;;4993997;28;20446;-48
2023/03/30 06:20:56;;;;;;;;;;;17.00;56.10;;;;;;4987188;28;20078;-50
2023/03/30 06:23:25;;;;;;;5.85;1.20;;;17.10;56.20;;;;;;4991011;28;19921;-50
2023/03/30 06:26:00;;;;;;;2.97;1.27;;;17.10;56.10;;;;;;4974155;28;20598;-47
2023/03/30 06:28:31;;;;;;;4.78;1.33;;;17.10;56.10;;;;;;4991318;28;20045;-51
2023/03/30 06:31:01;;;;;;;2.60;1.33;;;17.20;56.10;;;;;;5007301;28;20125;-47
2023/03/30 06:33:29;;;;;;;4.03;1.38;;;17.30;56.10;;;;;;4987631;28;20046;-51
2023/03/30 06:35:57;;;;;;;2.08;1.17;;;17.30;56.00;;;;;;4979116;28;20050;-50
2023/03/30 06:38:24;;;;;;;1.48;1.10;;;17.30;55.90;;;;;;4993379;28;20041;-49
2023/03/30 06:40:53;;;;;;;1.63;1.13;;;17.40;56.00;;;;;;4987090;28;20070;-48
2023/03/30 06:43:24;;;;;;;3.15;1.27;;;17.40;55.90;;;;;;4988253;28;20042;-48
2023/03/30 06:46:07;;;;;;;1.60;1.08;;;17.50;56.00;;;;;;4988811;28;20052;-50
2023/03/30 06:48:34;;;;;;;4.53;1.52;;;17.50;56.70;;;;;;5003860;28;20125;-51
2023/03/30 06:51:20;;;;;;;3.60;1.05;;;17.60;56.10;;;;;;4994258;28;20053;-50
2023/03/30 06:53:47;;;;;;;2.35;1.00;;;17.60;56.00;;;;;;4989511;28;20145;-50
2023/03/30 06:56:14;;;;;;;2.50;1.20;;;17.60;55.80;;;;;;4990982;28;20092;-48
2023/03/30 06:58:59;;;;;;;3.15;1.23;;;17.60;55.80;;;;;;4973343;28;20431;-48
2023/03/30 07:01:25;;;;;;;2.83;1.00;;;17.70;55.80;;;;;;4986563;28;20038;-49
2023/03/30 07:04:10;;;;;;;3.58;1.35;;;17.70;55.70;;;;;;4981787;28;20038;-50
2023/03/30 07:07:09;;;;;;;2.92;0.90;;;17.70;55.70;;;;;;4993988;28;20057;-52
2023/03/30 07:09:37;;;;;;;4.07;1.10;;;17.80;57.60;;;;;;4974908;28;20061;-52
2023/03/30 07:12:04;;;;;;;1.88;0.80;;;17.70;58.10;;;;;;4992911;28;20064;-51
2023/03/30 07:14:34;;;;;;;1.73;1.20;;;17.60;58.20;;;;;;4998002;28;20034;-51
2023/03/30 07:17:01;;;;;;;1.63;0.80;;;17.40;58.40;;;;;;4989229;28;20089;-48
2023/03/30 07:19:28;;;;;;;2.33;0.80;;;17.30;58.80;;;;;;4983753;28;20038;-50
2023/03/30 07:21:56;;;;;;;2.47;0.80;;;17.10;59.90;;;;;;5002379;28;20066;-51
2023/03/30 07:24:25;;;;;;;5.38;0.90;;;17.00;59.40;;;;;;4989655;28;20149;-51
2023/03/30 07:26:52;;;;;;;2.88;1.25;;;17.00;59.80;;;;;;4974223;28;20049;-50
2023/03/30 07:29:19;;;;;;;3.47;1.50;;;16.90;59.90;;;;;;4989830;28;20584;-51
2023/03/30 07:31:50;;;;;;;3.17;1.13;;;16.80;59.90;;;;;;4992436;28;20421;-51
2023/03/30 07:34:19;;;;;;;3.05;1.00;;;16.80;60.10;;;;;;4982711;28;20054;-49
2023/03/30 07:36:53;;;;;;;3.13;1.25;;;16.70;60.20;;;;;;4985697;28;20073;-50
2023/03/30 07:39:23;;;;;;;1.98;1.10;;;16.70;60.30;;;;;;4992037;28;20510;-51
2023/03/30 07:41:50;;;;;;;4.97;1.30;;;16.80;60.30;;;;;;4978579;28;20089;-48
2023/03/30 07:44:17;;;;;;;3.72;1.33;;;16.80;60.50;;;;;;4987290;28;20138;-50
2023/03/30 07:46:44;;;;;;;3.05;1.00;;;16.80;60.30;;;;;;5003497;28;20119;-52
2023/03/30 07:49:20;;;;;;;4.80;1.17;;;16.80;60.20;;;;;;4974399;28;20050;-51
2023/03/30 07:51:46;;;;;;;5.53;1.35;;;16.90;60.10;;;;;;4987878;28;20058;-49
2023/03/30 07:54:21;;;;;;;5.00;1.52;;;16.90;59.80;;;;;;4992114;28;20080;-52
2023/03/30 07:57:02;;;;;;;4.07;1.15;;;16.90;59.60;;;;;;4977196;28;20254;-48
2023/03/30 07:59:30;;;;;;;3.92;1.00;;;16.90;59.60;;;;;;4983763;28;20068;-48
2023/03/30 08:02:11;;;;;;;4.25;1.63;;;16.90;59.60;;;;;;4982041;28;20046;-52
2023/03/30 08:04:47;;;;;;;6.60;2.45;;;16.90;59.50;;;;;;4973163;28;20141;-47
2023/03/30 08:07:21;;;;;;;6.43;2.38;;;16.90;59.60;;;;;;4982048;28;20124;-51
2023/03/30 08:09:53;;;;;;;7.35;1.50;;;16.80;59.70;;;;;;4991785;28;20506;-50
2023/03/30 08:12:20;;;;;;;8.65;1.77;;;16.90;59.70;;;;;;4976429;28;20065;-47
2023/03/30 08:14:46;;;;;;;5.57;1.35;;;16.90;59.60;;;;;;4980453;28;20061;-47
2023/03/30 08:17:14;;;;;;;4.90;1.80;;;16.90;59.80;;;;;;5012571;28;20716;-47
2023/03/30 08:19:40;;;;;;;7.25;1.50;;;16.90;59.90;;;;;;5000648;28;20046;-49
2023/03/30 08:22:08;;;;;;;4.90;1.45;;;17.00;60.10;;;;;;5008467;28;20076;-51
2023/03/30 08:24:34;;;;;;;5.57;2.38;;;17.10;60.20;;;;;;5002226;28;20038;-48
2023/03/30 08:27:01;;;;;;;6.18;1.02;;;17.20;59.80;;;;;;5000851;28;20045;-50
2023/03/30 08:29:30;;;;;;;5.63;1.55;;;17.30;59.60;;;;;;5002460;28;20062;-48
2023/03/30 08:31:56;;;;;;;5.05;1.42;;;17.40;59.40;;;;;;5010243;28;20056;-49
2023/03/30 08:34:23;;;;;;;6.43;1.75;;;17.50;59.00;;;;;;4988032;28;20050;-51
2023/03/30 08:36:50;;;;;;;6.05;1.50;;;17.50;59.00;;;;;;4986553;28;20402;-52
2023/03/30 08:39:20;;;;;;;4.10;1.42;;;17.60;58.70;;;;;;5006905;28;20049;-51
2023/03/30 08:41:58;;;;;;;2.92;1.40;;;17.60;58.60;;;;;;5013622;28;20038;-52
2023/03/30 08:44:38;;;;;;;2.50;1.20;;;17.70;58.20;;;;;;5013461;28;20042;-50
2023/03/30 08:47:15;;;;;;;4.50;1.88;;;17.70;58.00;;;;;;5011134;28;20113;-50
2023/03/30 08:49:52;;;;;;;3.25;0.95;;;17.70;58.10;;;;;;5004319;28;20120;-49
2023/03/30 08:52:23;;;;;;;4.30;1.17;;;17.70;57.80;;;;;;5009590;28;20076;-48
2023/03/30 08:54:51;;;;;;;2.85;1.08;;;17.70;57.60;;;;;;4999706;28;20054;-51
2023/03/30 08:57:41;;;;;;;5.20;1.80;;;17.70;57.40;;;;;;5001040;28;20117;-51
2023/03/30 09:00:26;;;;;;;5.88;1.92;;;17.70;57.60;;;;;;4998794;28;20074;-51
2023/03/30 09:03:16;;;;;;;4.68;1.63;;;17.70;58.40;;;;;;5008009;28;20502;-48
2023/03/30 09:05:50;;;;;;;3.38;1.50;;;17.70;58.40;;;;;;5004968;28;20046;-51
2023/03/30 09:08:27;;;;;;;5.22;2.08;;;17.70;58.50;;;;;;5010670;28;20050;-49
2023/03/30 09:11:06;;;;;;;5.93;1.45;;;17.80;58.40;;;;;;5010594;28;20768;-47
2023/03/30 09:13:36;;;;;;;6.00;1.85;;;17.90;57.80;;;;;;5010781;28;20042;-50
2023/03/30 09:16:21;;;;;;;5.15;1.33;;;17.90;57.40;;;;;;5006937;28;20125;-51
2023/03/30 09:18:55;;;;;;;4.20;1.38;;;18.00;56.80;;;;;;5004858;28;20100;-51
2023/03/30 09:21:27;;;;;;;8.98;1.92;;;18.00;56.90;;;;;;5002140;28;20518;-47
2023/03/30 09:23:59;;;;;;;4.90;1.20;;;18.00;56.70;;;;;;5006098;28;20376;-46
2023/03/30 09:26:39;;;;;;;5.68;1.70;;;18.00;56.60;;;;;;5002502;28;20052;-48
2023/03/30 09:29:25;;;;;;;4.85;1.33;;;18.00;56.40;;;;;;5001455;28;20046;-47
2023/03/30 09:32:17;;;;;;;4.45;1.50;;;18.00;56.40;;;;;;5004965;28;20046;-51
2023/03/30 09:34:52;;;;;;;7.03;1.55;;;18.00;56.30;;;;;;4982613;28;20518;-50
2023/03/30 09:37:20;;;;;;;6.50;2.45;;;17.80;56.20;;;;;;4992488;28;20518;-49
2023/03/30 09:39:48;;;;;;;3.30;1.48;;;17.70;56.40;;;;;;5010865;28;20056;-48
2023/03/30 09:42:15;;;;;;;7.15;1.85;;;17.60;56.60;;;;;;4995121;28;20578;-47
2023/03/30 09:44:53;;;;;;;5.43;1.25;;;17.60;57.00;;;;;;4994550;28;20043;-51
2023/03/30 09:47:35;;;;;;;7.53;1.52;;;17.50;57.20;;;;;;5006286;28;20065;-47
2023/03/30 09:50:15;;;;;;;6.03;2.80;;;17.50;57.40;;;;;;5002435;28;20505;-49
2023/03/30 09:52:58;;;;;;;6.15;2.17;;;17.50;57.50;;;;;;5007542;28;20042;-50
2023/03/30 09:55:29;;;;;;;;;;;17.50;57.60;;;;;;5004544;28;20045;-49
2023/03/30 09:58:13;;;;;;;;;;;17.50;57.50;;;;;;5006367;28;20304;-51
2023/03/30 10:00:39;;;;;;;;;;;17.50;57.40;;;;;;5009018;28;19930;-48
2023/03/30 10:03:06;;;;;;;;;;;17.50;57.50;;;;;;4980687;28;20513;-50
2023/03/30 10:05:34;;;;;;;;;;;17.50;57.40;;;;;;5004349;28;19929;-50
2023/03/30 10:08:04;;;;;;;;;;;17.50;57.40;;;;;;5005751;28;19925;-50
2023/03/30 10:10:35;;;;;;;;;;;17.50;57.30;;;;;;4983645;28;19922;-49
2023/03/30 10:13:12;;;;;;;;;;;17.50;57.30;;;;;;4999343;28;19929;-50
2023/03/30 10:15:42;;;;;;;;;;;17.50;57.40;;;;;;5002240;28;20013;-51
2023/03/30 10:18:18;;;;;;;;;;;17.50;57.70;;;;;;5004696;28;19932;-51
2023/03/30 10:21:05;;;;;;;;;;;17.50;57.60;;;;;;5008197;28;20023;-50
2023/03/30 10:23:40;;;;;;;;;;;17.60;57.60;;;;;;5000682;28;20294;-48
2023/03/30 10:26:14;;;;;;;;;;;17.60;57.60;;;;;;5005518;28;19933;-49
2023/03/30 10:28:51;;;;;;;;;;;17.60;57.60;;;;;;4999391;28;19925;-51
2023/03/30 10:31:17;;;;;;;;;;;17.60;57.70;;;;;;5005067;28;19979;-49
2023/03/30 10:33:44;;;;;;;;;;;17.70;57.90;;;;;;4991115;28;19976;-50
2023/03/30 10:36:13;;;;;;;;;;;17.80;57.90;;;;;;4987118;28;20444;-50
2023/03/30 10:38:40;;;;;;;;;;;17.80;57.90;;;;;;5001865;28;19952;-51
2023/03/30 10:41:10;;;;;;;;;;;17.90;58.00;;;;;;5006756;28;19929;-51
2023/03/30 10:43:37;;;;;;;;;;;18.00;58.10;;;;;;5005249;28;19922;-50
2023/03/30 10:46:06;;;;;;;;;;;18.10;57.90;;;;;;5007739;28;19932;-51
2023/03/30 10:48:52;;;;;;;;;;;18.20;57.60;;;;;;5007422;28;19928;-51
2023/03/30 10:51:25;;;;;;;;;;;18.30;57.40;;;;;;5004215;28;20407;-50
2023/03/30 10:53:52;;;;;;;;;;;18.40;57.10;;;;;;5008602;28;20421;-47
2023/03/30 10:56:25;;;;;;;;;;;18.50;57.10;;;;;;5006920;28;19925;-48
2023/03/30 10:58:55;;;;;;;;;;;18.60;57.20;;;;;;5007430;28;19921;-50
2023/03/30 11:01:22;;;;;;;;;;;18.70;57.00;;;;;;5007749;28;20329;-51
2023/03/30 11:03:52;;;;;;;;;;;18.80;56.80;;;;;;5007650;28;19928;-51
2023/03/30 11:06:28;;;;;;;;;;;18.90;56.80;;;;;;5007413;28;20142;-51
2023/03/30 11:08:57;;;;;;;;;;;19.00;56.50;;;;;;5005619;28;19931;-49
2023/03/30 11:11:31;;;;;;;;;;;19.00;55.30;;;;;;5011371;28;19921;-49
2023/03/30 11:14:03;;;;;;;;;;;19.10;55.90;;;;;;4997050;28;19922;-50
2023/03/30 11:16:46;;;;;;;;;;;19.30;56.40;;;;;;5005287;28;19921;-52
2023/03/30 11:19:16;;;;;;;;;;;19.30;56.30;;;;;;4998830;28;19928;-49
2023/03/30 11:21:55;;;;;;;;;;;19.50;56.20;;;;;;5006667;28;19921;-51
2023/03/30 11:24:25;;;;;;;;;;;19.50;55.80;;;;;;5009329;28;20045;-50
2023/03/30 11:27:01;;;;;;;;;;;19.70;55.80;;;;;;5010010;28;19921;-50
2023/03/30 11:29:40;;;;;;;;;;;19.70;55.60;;;;;;5004822;28;19921;-47
2023/03/30 11:32:13;;;;;;;;;;;19.70;55.50;;;;;;5004089;28;19931;-50
2023/03/30 11:34:50;;;;;;;;;;;19.80;55.60;;;;;;4990950;28;19926;-51
2023/03/30 11:37:16;;;;;;;;;;;19.80;55.30;;;;;;5004861;28;19925;-50
2023/03/30 11:39:50;;;;;;;;;;;19.90;54.80;;;;;;4998199;28;19976;-51
2023/03/30 11:42:25;;;;;;;;;;;19.90;54.80;;;;;;4997948;28;20286;-47
2023/03/30 11:44:52;;;;;;;;;;;19.80;54.60;;;;;;4998823;28;19921;-47
2023/03/30 11:47:37;;;;;;;;;;;19.80;54.80;;;;;;5009420;28;19921;-47
2023/03/30 11:50:22;;;;;;;;;;;19.70;55.00;;;;;;4995893;28;20004;-49
2023/03/30 11:52:55;;;;;;;;;;;19.60;55.10;;;;;;5004026;28;19921;-46
2023/03/30 11:55:25;;;;;;;;;;;19.60;55.10;;;;;;5001864;28;19925;-50
2023/03/30 11:58:05;;;;;;;;;;;19.50;55.10;;;;;;5004026;28;19922;-51
2023/03/30 12:00:33;;;;;;;;;;;19.50;55.10;;;;;;5005335;28;20007;-50
2023/03/30 12:03:15;;;;;;;;;;;19.40;55.80;;;;;;4989941;28;19929;-50
2023/03/30 12:05:48;;;;;;;;;;;19.40;55.50;;;;;;4997709;28;19925;-51
2023/03/30 12:08:25;;;;;;;;;;;19.20;55.70;;;;;;5004515;28;19926;-47
2023/03/30 12:11:10;;;;;;;;;;;19.10;55.80;;;;;;5006261;28;20378;-49
2023/03/30 12:13:37;;;;;;;;;;;19.00;55.90;;;;;;5009231;28;19925;-51
2023/03/30 12:16:23;;;;;;;;;;;18.90;56.00;;;;;;5006496;28;20375;-50
2023/03/30 12:19:04;;;;;;;;;;;18.80;56.60;;;;;;5002202;28;19928;-49
2023/03/30 12:21:33;;;;;;;;;;;18.80;56.30;;;;;;5002551;28;19921;-51
2023/03/30 12:24:00;;;;;;;;;;;18.80;56.40;;;;;;5005076;28;19945;-47
2023/03/30 12:26:28;;;;;;;;;;;18.80;56.50;;;;;;4992464;28;19938;-50
2023/03/30 12:28:57;;;;;;;;;;;18.90;56.50;;;;;;5003572;28;19921;-51
2023/03/30 12:31:48;;;;;;;;;;;19.00;56.40;;;;;;5007355;28;20361;-50
2023/03/30 12:34:19;;;;;;;;;;;19.10;56.50;;;;;;4990702;28;19997;-47
2023/03/30 12:36:48;;;;;;;;;;;19.10;56.30;;;;;;5001704;28;20282;-48
2023/03/30 12:39:25;;;;;;;;;;;19.20;56.10;;;;;;4999157;28;19936;-47
2023/03/30 12:41:56;;;;;;;;;;;19.20;55.90;;;;;;4999722;28;20309;-50
2023/03/30 12:44:34;;;;;;;;;;;19.20;55.80;;;;;;4990070;28;19937;-51
2023/03/30 12:47:11;;;;;;;;;;;19.30;56.00;;;;;;4996585;28;19925;-50
2023/03/30 12:49:44;;;;;;;;;;;19.40;55.80;;;;;;5005786;28;19925;-49
2023/03/30 12:52:13;;;;;;;;;;;19.40;55.60;;;;;;5007758;28;19921;-50
2023/03/30 12:54:53;;;;;;;;;;;19.40;55.10;;;;;;5001179;28;19980;-48
2023/03/30 12:57:38;;;;;;;;;;;19.50;55.10;;;;;;5002495;28;19948;-50
2023/03/30 13:00:08;;;;;;;;;;;19.40;55.00;;;;;;5006653;28;19921;-50
2023/03/30 13:02:54;;;;;;;;;;;19.40;55.00;;;;;;5011707;28;19929;-48
2023/03/30 13:05:27;;;;;;;;;;;19.30;55.10;;;;;;5004380;28;19928;-48
2023/03/30 13:07:54;;;;;;;;;;;19.30;55.30;;;;;;5000756;28;19922;-52
2023/03/30 13:10:30;;;;;;;;;;;19.20;55.30;;;;;;5003445;28;19925;-47
2023/03/30 13:12:57;;;;;;;;;;;19.20;55.10;;;;;;5006730;28;20398;-48
2023/03/30 13:15:32;;;;;;;;;;;19.10;55.10;;;;;;4993419;28;19975;-49
2023/03/30 13:18:00;;;;;;;;;;;19.00;55.60;;;;;;5002136;28;19921;-50
2023/03/30 13:20:34;;;;;;;;;;;18.90;55.30;;;;;;5007941;28;19928;-49
2023/03/30 13:23:01;;;;;;;;;;;18.90;55.60;;;;;;5013600;28;19929;-50
2023/03/30 13:25:35;;;;;;;;;;;18.80;55.60;;;;;;4995982;28;19945;-49
2023/03/30 13:28:21;;;;;;;;;;;18.80;56.00;;;;;;4998162;28;19926;-48
2023/03/30 13:30:48;;;;;;;;;;;18.80;56.20;;;;;;5008454;28;19921;-48
2023/03/30 13:33:20;;;;;;;;;;;18.80;56.40;;;;;;5004070;28;19925;-48
2023/03/30 13:35:55;;;;;;;;;;;19.00;56.60;;;;;;5007440;28;19929;-51
2023/03/30 13:38:27;;;;;;;;;;;19.10;56.50;;;;;;5008436;28;19925;-51
2023/03/30 13:41:17;;;;;;;;;;;19.20;56.30;;;;;;5007665;28;20346;-51
2023/03/30 13:44:02;;;;;;;;;;;19.40;56.40;;;;;;5008319;28;19921;-49
2023/03/30 13:46:33;;;;;;;;;;;19.60;56.50;;;;;;5008327;28;19921;-47
2023/03/30 13:49:09;;;;;;;;;;;19.90;56.10;;;;;;5000471;28;19926;-52
2023/03/30 13:51:36;;;;;;;;;;;20.10;56.00;;;;;;5004789;28;19949;-51
2023/03/30 13:54:10;;;;;;;;;;;20.30;55.20;;;;;;5007030;28;19921;-50
2023/03/30 13:56:41;;;;;;;;;;;20.40;54.60;;;;;;5001540;28;19936;-50
2023/03/30 13:59:13;;;;;;;;;;;20.40;54.40;;;;;;5001477;28;19925;-51